createdAt,value
2019-01-04T00:00:31.527Z,103187.64
2019-01-04T00:03:01.281Z,103189.63
2019-01-04T00:05:30.592Z,103183.94
2019-01-04T00:08:00.660Z,103188.45
2019-01-04T00:10:29.983Z,103191.44
2019-01-04T00:12:59.923Z,103185.59
2019-01-04T00:15:32.525Z,103185.99
2019-01-04T00:18:01.838Z,103184.68
2019-01-04T00:20:31.473Z,103190.97
2019-01-04T00:23:00.768Z,103185.51
2019-01-04T00:25:30.654Z,103191.77
2019-01-04T00:28:00.241Z,103188.73
2019-01-04T00:30:29.703Z,103189.89
2019-01-04T00:32:58.986Z,103196.09
2019-01-04T00:35:30.212Z,103190.45
2019-01-04T00:37:59.589Z,103194.97
2019-01-04T00:40:29.825Z,103183.59
2019-01-04T00:42:59.321Z,103183.78
2019-01-04T00:45:28.890Z,103184.59
2019-01-04T00:47:58.258Z,103184.36
2019-01-04T00:50:28.694Z,103181.84
2019-01-04T00:52:58.136Z,103183.63
2019-01-04T00:55:36.555Z,103184.11
2019-01-04T00:58:11.621Z,103179.34
2019-01-04T01:00:49.986Z,103175.03
2019-01-04T01:03:42.237Z,103174.33
2019-01-04T01:06:17.288Z,103178.06
2019-01-04T01:09:11.002Z,103181.25
2019-01-04T01:12:11.662Z,103182.97
2019-01-04T01:15:01.224Z,103176.06
2019-01-04T01:17:42.293Z,103174.34
2019-01-04T01:20:38.823Z,103160.86
2019-01-04T01:23:19.991Z,103162.98
2019-01-04T01:26:08.854Z,103166.72
2019-01-04T01:28:56.219Z,103172.37
2019-01-04T01:31:57.346Z,103190.01
2019-01-04T01:34:38.315Z,103200.05
2019-01-04T01:37:43.967Z,103196.05
2019-01-04T01:40:41.952Z,103194.72
2019-01-04T01:43:41.874Z,103189.18
2019-01-04T01:46:26.513Z,103200.80
2019-01-04T01:49:16.487Z,103199.20
2019-01-04T01:51:54.867Z,103202.83
2019-01-04T01:54:24.194Z,103201.89
2019-01-04T01:56:53.525Z,103194.58
2019-01-04T01:59:22.861Z,103195.38
2019-01-04T02:01:52.192Z,103196.27
2019-01-04T02:04:21.592Z,103195.48
2019-01-04T02:06:50.911Z,103194.56
2019-01-04T02:09:20.612Z,103198.63
2019-01-04T02:11:50.340Z,103198.19
2019-01-04T02:14:19.820Z,103206.76
2019-01-04T02:16:49.119Z,103209.61
2019-01-04T02:19:18.798Z,103214.03
2019-01-04T02:21:48.112Z,103210.25
2019-01-04T02:24:17.427Z,103217.55
2019-01-04T02:26:46.730Z,103219.50
2019-01-04T02:29:16.372Z,103224.34
2019-01-04T02:31:45.690Z,103219.00
2019-01-04T02:34:15.081Z,103217.63
2019-01-04T02:36:44.383Z,103211.18
2019-01-04T02:39:13.724Z,103212.80
2019-01-04T02:41:43.039Z,103213.22
2019-01-04T02:44:12.359Z,103204.23
2019-01-04T02:46:41.744Z,103205.50
2019-01-04T02:49:11.077Z,103201.17
2019-01-04T02:51:40.392Z,103202.91
2019-01-04T02:54:09.733Z,103204.40
2019-01-04T02:56:39.704Z,103206.59
2019-01-04T02:59:09.111Z,103214.61
2019-01-04T03:01:38.732Z,103225.42
2019-01-04T03:04:08.093Z,103221.05
2019-01-04T03:06:37.392Z,103217.96
2019-01-04T03:09:07.153Z,103210.03
2019-01-04T03:11:36.471Z,103209.60
2019-01-04T03:14:06.090Z,103205.70
2019-01-04T03:16:35.420Z,103199.88
2019-01-04T03:19:04.804Z,103203.91
2019-01-04T03:21:34.126Z,103199.09
2019-01-04T03:24:04.087Z,103189.73
2019-01-04T03:26:33.420Z,103191.77
2019-01-04T03:29:02.788Z,103193.67
2019-01-04T03:31:32.178Z,103193.58
2019-01-04T03:34:01.494Z,103197.81
2019-01-04T03:36:30.819Z,103191.69
2019-01-04T03:39:00.619Z,103196.29
2019-01-04T03:41:29.951Z,103198.14
2019-01-04T03:43:59.272Z,103199.20
2019-01-04T03:46:28.578Z,103202.64
2019-01-04T03:48:58.196Z,103200.81
2019-01-04T03:51:28.190Z,103202.86
2019-01-04T03:53:57.524Z,103203.55
2019-01-04T03:56:27.129Z,103199.25
2019-01-04T03:58:56.784Z,103194.86
2019-01-04T04:01:26.301Z,103201.27
2019-01-04T04:03:55.696Z,103199.03
2019-01-04T04:06:25.021Z,103194.77
2019-01-04T04:08:54.348Z,103201.44
2019-01-04T04:11:23.773Z,103203.05
2019-01-04T04:13:53.448Z,103196.98
2019-01-04T04:16:22.741Z,103185.59
2019-01-04T04:18:52.969Z,103193.27
2019-01-04T04:21:22.843Z,103197.39
2019-01-04T04:23:52.157Z,103200.73
2019-01-04T04:26:21.468Z,103200.55
2019-01-04T04:28:50.783Z,103201.55
2019-01-04T04:31:20.121Z,103192.59
2019-01-04T04:33:49.439Z,103175.23
2019-01-04T04:36:19.769Z,103175.22
2019-01-04T04:38:49.080Z,103183.70
2019-01-04T04:41:18.411Z,103179.47
2019-01-04T04:43:47.843Z,103186.75
2019-01-04T04:46:17.160Z,103186.81
2019-01-04T04:48:46.683Z,103191.36
2019-01-04T04:51:16.053Z,103182.32
2019-01-04T04:53:45.370Z,103188.63
2019-01-04T04:56:15.124Z,103194.34
2019-01-04T04:58:44.455Z,103191.64
2019-01-04T05:01:13.957Z,103189.98
2019-01-04T05:03:43.267Z,103192.91
2019-01-04T05:06:12.912Z,103198.21
2019-01-04T05:08:42.217Z,103190.27
2019-01-04T05:11:11.625Z,103187.23
2019-01-04T05:13:41.113Z,103185.95
2019-01-04T05:16:10.616Z,103185.63
2019-01-04T05:18:40.520Z,103184.48
2019-01-04T05:21:10.015Z,103185.73
2019-01-04T05:23:39.353Z,103184.92
2019-01-04T05:26:08.841Z,103187.97
2019-01-04T05:28:38.148Z,103176.99
2019-01-04T05:31:07.486Z,103179.47
2019-01-04T05:33:37.159Z,103170.11
2019-01-04T05:36:06.475Z,103175.95
2019-01-04T05:38:35.799Z,103169.64
2019-01-04T05:41:05.137Z,103167.01
2019-01-04T05:43:34.437Z,103176.96
2019-01-04T05:46:03.781Z,103180.09
2019-01-04T05:48:33.070Z,103168.98
2019-01-04T05:51:02.907Z,103171.01
2019-01-04T05:53:32.543Z,103166.19
2019-01-04T05:56:02.043Z,103170.04
2019-01-04T05:58:31.370Z,103172.50
2019-01-04T06:01:00.696Z,103164.77
2019-01-04T06:03:30.029Z,103163.05
2019-01-04T06:05:59.322Z,103165.87
2019-01-04T06:08:28.673Z,103168.73
2019-01-04T06:10:58.114Z,103170.41
2019-01-04T06:13:28.097Z,103181.19
2019-01-04T06:15:57.398Z,103183.09
2019-01-04T06:18:26.906Z,103182.28
2019-01-04T06:20:56.704Z,103185.09
2019-01-04T06:23:26.497Z,103133.84
2019-01-04T06:25:55.882Z,103176.83
2019-01-04T06:28:25.288Z,103175.65
2019-01-04T06:30:54.960Z,103173.34
2019-01-04T06:33:24.318Z,103159.80
2019-01-04T06:35:53.635Z,103162.82
2019-01-04T06:38:22.978Z,103161.70
2019-01-04T06:40:52.508Z,103163.62
2019-01-04T06:43:22.555Z,103163.78
2019-01-04T06:45:51.887Z,103166.70
2019-01-04T06:48:21.210Z,103167.81
2019-01-04T06:50:50.546Z,103163.36
2019-01-04T06:53:19.868Z,103161.10
2019-01-04T06:55:51.905Z,103164.81
2019-01-04T06:58:21.210Z,103166.97
2019-01-04T07:00:50.622Z,103169.48
2019-01-04T07:03:19.918Z,103163.59
2019-01-04T07:05:49.238Z,103158.03
2019-01-04T07:08:18.636Z,103161.23
2019-01-04T07:10:47.957Z,103157.04
2019-01-04T07:13:17.330Z,103150.77
2019-01-04T07:15:46.635Z,103155.23
2019-01-04T07:18:16.092Z,103160.61
2019-01-04T07:20:45.406Z,103169.02
2019-01-04T07:23:14.899Z,103166.80
2019-01-04T07:25:44.184Z,103174.36
2019-01-04T07:28:13.499Z,103178.63
2019-01-04T07:30:42.793Z,103174.38
2019-01-04T07:33:12.355Z,103182.64
2019-01-04T07:35:41.644Z,103188.88
2019-01-04T07:38:10.973Z,103185.91
2019-01-04T07:40:40.266Z,103181.09
2019-01-04T07:43:09.593Z,103176.11
2019-01-04T07:45:38.889Z,103175.95
2019-01-04T07:48:08.198Z,103170.05
2019-01-04T07:50:37.717Z,103178.27
2019-01-04T07:53:07.046Z,103176.20
2019-01-04T07:55:36.350Z,103177.09
2019-01-04T07:58:05.732Z,103175.44
2019-01-04T08:00:35.024Z,103176.28
2019-01-04T08:03:05.490Z,103171.86
2019-01-04T08:05:34.809Z,103171.89
2019-01-04T08:08:04.278Z,103163.10
2019-01-04T08:10:33.812Z,103171.48
2019-01-04T08:13:03.280Z,103178.85
2019-01-04T08:15:32.978Z,103179.80
2019-01-04T08:18:02.293Z,103182.77
2019-01-04T08:20:31.632Z,103197.30
2019-01-04T08:23:01.165Z,103192.73
2019-01-04T08:25:30.942Z,103192.34
2019-01-04T08:28:00.235Z,103179.52
2019-01-04T08:30:29.578Z,103167.36
2019-01-04T08:32:59.021Z,103165.98
2019-01-04T08:35:28.816Z,103168.99
2019-01-04T08:37:58.413Z,103177.56
2019-01-04T08:40:29.282Z,103171.60
2019-01-04T08:42:58.641Z,103179.32
2019-01-04T08:45:28.163Z,103178.97
2019-01-04T08:47:57.656Z,103191.17
2019-01-04T08:50:26.981Z,103191.61
2019-01-04T08:52:56.280Z,103197.42
2019-01-04T08:55:25.641Z,103195.91
2019-01-04T08:57:54.936Z,103202.05
2019-01-04T09:00:24.275Z,103197.75
2019-01-04T09:02:53.566Z,103193.14
2019-01-04T09:05:22.949Z,103186.14
2019-01-04T09:07:52.246Z,103182.48
2019-01-04T09:10:21.829Z,103176.69
2019-01-04T09:12:51.147Z,103170.13
2019-01-04T09:15:20.772Z,103172.53
2019-01-04T09:17:50.086Z,103170.67
2019-01-04T09:20:19.377Z,103170.34
2019-01-04T09:22:48.684Z,103166.33
2019-01-04T09:25:18.092Z,103162.10
2019-01-04T09:27:47.392Z,103164.30
2019-01-04T09:30:17.086Z,103152.18
2019-01-04T09:32:46.472Z,103145.33
2019-01-04T09:35:15.808Z,103138.59
2019-01-04T09:37:45.130Z,103135.44
2019-01-04T09:40:14.465Z,103135.63
2019-01-04T09:42:43.853Z,103125.82
2019-01-04T09:45:13.339Z,103129.50
2019-01-04T09:47:42.645Z,103119.81
2019-01-04T09:50:12.294Z,103129.32
2019-01-04T09:52:41.592Z,103125.41
2019-01-04T09:55:10.904Z,103125.97
2019-01-04T09:57:40.708Z,103124.80
2019-01-04T10:00:11.129Z,103117.51
2019-01-04T10:02:40.790Z,103118.97
2019-01-04T10:05:10.150Z,103115.34
2019-01-04T10:07:39.548Z,103111.13
2019-01-04T10:10:10.385Z,103105.11
2019-01-04T10:12:39.969Z,103097.22
2019-01-04T10:15:15.314Z,103087.33
2019-01-04T10:17:44.695Z,103081.77
2019-01-04T10:20:14.248Z,103082.69
2019-01-04T10:22:43.571Z,103072.95
2019-01-04T10:25:12.978Z,103070.23
2019-01-04T10:27:42.373Z,103063.64
2019-01-04T10:30:14.806Z,103060.39
2019-01-04T10:32:44.187Z,103062.42
2019-01-04T10:35:13.622Z,103055.23
2019-01-04T10:37:42.922Z,103052.08
2019-01-04T10:40:12.563Z,103047.05
2019-01-04T10:42:41.858Z,103049.31
2019-01-04T10:45:11.326Z,103045.80
2019-01-04T10:47:41.483Z,103046.48
2019-01-04T10:50:10.830Z,103040.92
2019-01-04T10:52:40.157Z,103030.61
2019-01-04T10:55:09.560Z,103031.82
2019-01-04T10:57:38.900Z,103029.23
2019-01-04T11:00:10.799Z,103023.84
2019-01-04T11:02:40.121Z,103018.34
2019-01-04T11:05:09.884Z,103007.84
2019-01-04T11:07:39.228Z,103005.43
2019-01-04T11:10:13.637Z,103014.13
2019-01-04T11:12:42.948Z,103011.44
2019-01-04T11:15:12.704Z,103012.81
2019-01-04T11:17:42.105Z,103013.25
2019-01-04T11:20:37.243Z,103008.30
2019-01-04T11:23:38.121Z,103019.80
2019-01-04T11:26:16.479Z,103008.81
2019-01-04T11:28:54.684Z,102999.06
2019-01-04T11:31:41.551Z,102997.41
2019-01-04T11:34:19.847Z,102992.69
2019-01-04T11:37:00.764Z,102980.17
2019-01-04T11:39:33.116Z,102971.50
2019-01-04T11:42:08.029Z,102970.76
2019-01-04T11:44:49.284Z,102973.09
2019-01-04T11:47:39.787Z,102974.08
2019-01-04T11:50:21.440Z,102973.08
2019-01-04T11:52:50.997Z,102971.23
2019-01-04T11:55:20.313Z,102971.20
2019-01-04T11:57:49.624Z,102968.39
2019-01-04T12:00:19.076Z,102959.45
2019-01-04T12:02:48.400Z,102960.64
2019-01-04T12:05:17.741Z,102950.51
2019-01-04T12:07:47.165Z,102944.52
2019-01-04T12:10:17.813Z,102948.63
2019-01-04T12:12:47.362Z,102953.03
2019-01-04T12:15:16.664Z,102940.35
2019-01-04T12:17:46.182Z,102943.84
2019-01-04T12:20:15.528Z,102937.32
2019-01-04T12:22:44.844Z,102932.27
2019-01-04T12:25:14.165Z,102927.46
2019-01-04T12:27:43.474Z,102927.40
2019-01-04T12:30:12.783Z,102927.92
2019-01-04T12:32:42.110Z,102917.90
2019-01-04T12:35:11.450Z,102914.47
2019-01-04T12:37:40.772Z,102912.47
2019-01-04T12:40:10.075Z,102903.59
2019-01-04T12:42:39.387Z,102901.34
2019-01-04T12:45:09.157Z,102907.41
2019-01-04T12:47:38.476Z,102902.38
2019-01-04T12:50:08.744Z,102906.05
2019-01-04T12:52:38.059Z,102900.20
2019-01-04T12:55:07.787Z,102911.47
2019-01-04T12:57:37.108Z,102908.48
2019-01-04T13:00:09.585Z,102916.18
2019-01-04T13:02:38.892Z,102911.75
2019-01-04T13:05:08.277Z,102916.14
2019-01-04T13:07:37.583Z,102914.81
2019-01-04T13:10:07.556Z,102899.53
2019-01-04T13:12:36.857Z,102896.84
2019-01-04T13:15:07.052Z,102897.37
2019-01-04T13:17:36.334Z,102888.63
2019-01-04T13:20:06.386Z,102888.16
2019-01-04T13:22:35.677Z,102889.11
2019-01-04T13:25:05.837Z,102875.55
2019-01-04T13:27:35.162Z,102879.57
2019-01-04T13:30:05.628Z,102876.39
2019-01-04T13:32:36.855Z,102868.95
2019-01-04T13:35:06.229Z,102864.68
2019-01-04T13:37:35.623Z,102868.22
2019-01-04T13:40:06.271Z,102870.44
2019-01-04T13:42:36.128Z,102879.92
2019-01-04T13:45:07.601Z,102870.58
2019-01-04T13:47:36.927Z,102865.08
2019-01-04T13:50:08.032Z,102864.26
2019-01-04T13:52:37.366Z,102873.15
2019-01-04T13:55:06.875Z,102869.80
2019-01-04T13:57:36.658Z,102862.25
2019-01-04T14:00:09.093Z,102850.70
2019-01-04T14:02:38.425Z,102851.38
2019-01-04T14:05:07.859Z,102848.25
2019-01-04T14:07:37.573Z,102846.27
2019-01-04T14:10:09.573Z,102840.16
2019-01-04T14:12:38.912Z,102840.19
2019-01-04T14:15:09.161Z,102842.91
2019-01-04T14:17:38.619Z,102842.55
2019-01-04T14:20:08.549Z,102833.36
2019-01-04T14:22:37.898Z,102845.41
2019-01-04T14:25:08.215Z,102842.91
2019-01-04T14:27:37.576Z,102852.27
2019-01-04T14:30:09.964Z,102854.16
2019-01-04T14:32:39.988Z,102854.27
2019-01-04T14:35:09.862Z,102855.91
2019-01-04T14:37:39.494Z,102851.27
2019-01-04T14:40:11.063Z,102852.69
2019-01-04T14:42:40.703Z,102851.20
2019-01-04T14:45:10.173Z,102845.95
2019-01-04T14:47:39.662Z,102849.19
2019-01-04T14:50:11.364Z,102852.59
2019-01-04T14:52:41.580Z,102849.22
2019-01-04T14:55:10.969Z,102841.35
2019-01-04T14:57:40.752Z,102835.30
2019-01-04T15:00:13.547Z,102831.62
2019-01-04T15:02:42.861Z,102836.37
2019-01-04T15:05:12.721Z,102834.33
2019-01-04T15:07:42.103Z,102834.42
2019-01-04T15:10:11.417Z,102825.98
2019-01-04T15:12:40.712Z,102828.68
2019-01-04T15:15:10.032Z,102828.84
2019-01-04T15:17:39.350Z,102830.13
2019-01-04T15:20:10.408Z,102820.64
2019-01-04T15:22:41.231Z,102818.02
2019-01-04T15:25:10.853Z,102820.70
2019-01-04T15:27:40.136Z,102819.02
2019-01-04T15:30:11.100Z,102818.25
2019-01-04T15:32:40.407Z,102822.52
2019-01-04T15:35:09.860Z,102827.09
2019-01-04T15:37:39.193Z,102841.31
2019-01-04T15:40:09.364Z,102834.63
2019-01-04T15:42:38.927Z,102841.72
2019-01-04T15:45:09.199Z,102837.85
2019-01-04T15:47:41.195Z,102837.85
2019-01-04T15:50:11.006Z,102824.73
2019-01-04T15:52:40.336Z,102833.69
2019-01-04T15:55:09.764Z,102824.61
2019-01-04T15:57:39.086Z,102802.31
2019-01-04T16:00:11.566Z,102800.58
2019-01-04T16:02:40.889Z,102804.53
2019-01-04T16:05:10.885Z,102799.76
2019-01-04T16:07:40.181Z,102803.39
2019-01-04T16:10:10.102Z,102808.37
2019-01-04T16:12:39.398Z,102783.95
2019-01-04T16:15:10.154Z,102782.55
2019-01-04T16:17:39.453Z,102791.42
2019-01-04T16:20:11.242Z,102806.38
2019-01-04T16:22:40.545Z,102813.51
2019-01-04T16:25:10.256Z,102812.77
2019-01-04T16:27:39.566Z,102824.53
2019-01-04T16:30:11.368Z,102814.08
2019-01-04T16:32:40.755Z,102809.58
2019-01-04T16:35:10.136Z,102804.47
2019-01-04T16:37:39.483Z,102804.50
2019-01-04T16:40:09.537Z,102810.55
2019-01-04T16:42:38.852Z,102819.26
2019-01-04T16:45:10.422Z,102821.51
2019-01-04T16:47:39.706Z,102821.28
2019-01-04T16:50:09.372Z,102817.84
2019-01-04T16:52:38.682Z,102813.11
2019-01-04T16:55:09.254Z,102806.58
2019-01-04T16:57:38.551Z,102798.95
2019-01-04T17:00:10.464Z,102800.30
2019-01-04T17:02:39.791Z,102793.64
2019-01-04T17:05:09.255Z,102787.22
2019-01-04T17:07:38.566Z,102787.02
2019-01-04T17:10:08.346Z,102791.63
2019-01-04T17:12:37.634Z,102786.72
2019-01-04T17:15:07.701Z,102781.41
2019-01-04T17:17:37.304Z,102780.88
2019-01-04T17:20:07.185Z,102779.52
2019-01-04T17:22:36.493Z,102781.30
2019-01-04T17:25:08.060Z,102776.37
2019-01-04T17:27:37.382Z,102771.52
2019-01-04T17:30:09.779Z,102774.34
2019-01-04T17:32:39.065Z,102775.34
2019-01-04T17:35:08.469Z,102788.55
2019-01-04T17:37:37.790Z,102783.70
2019-01-04T17:40:10.793Z,102788.05
2019-01-04T17:42:40.251Z,102787.98
2019-01-04T17:45:09.652Z,102779.08
2019-01-04T17:47:38.998Z,102776.73
2019-01-04T17:50:08.877Z,102773.84
2019-01-04T17:52:38.212Z,102775.77
2019-01-04T17:55:07.658Z,102767.02
2019-01-04T17:57:37.026Z,102771.72
2019-01-04T18:00:09.136Z,102768.06
2019-01-04T18:02:38.418Z,102770.20
2019-01-04T18:05:07.827Z,102776.11
2019-01-04T18:07:37.127Z,102781.49
2019-01-04T18:10:08.501Z,102779.00
2019-01-04T18:12:37.964Z,102784.24
2019-01-04T18:15:08.123Z,102784.24
2019-01-04T18:17:37.575Z,102780.28
2019-01-04T18:20:10.913Z,102792.54
2019-01-04T18:22:40.691Z,102792.45
2019-01-04T18:25:10.098Z,102791.73
2019-01-04T18:27:39.611Z,102794.62
2019-01-04T18:30:10.412Z,102790.70
2019-01-04T18:32:39.841Z,102791.57
2019-01-04T18:35:09.320Z,102788.14
2019-01-04T18:37:38.723Z,102788.61
2019-01-04T18:40:10.236Z,102787.45
2019-01-04T18:42:40.036Z,102793.01
2019-01-04T18:45:09.983Z,102796.09
2019-01-04T18:47:39.643Z,102797.17
2019-01-04T18:50:12.606Z,102792.49
2019-01-04T18:52:42.109Z,102787.19
2019-01-04T18:55:11.675Z,102789.23
2019-01-04T18:57:41.093Z,102789.36
2019-01-04T19:00:11.901Z,102793.53
2019-01-04T19:02:41.515Z,102792.63
2019-01-04T19:05:11.128Z,102791.38
2019-01-04T19:07:40.632Z,102799.92
2019-01-04T19:10:10.758Z,102805.08
2019-01-04T19:12:40.203Z,102806.52
2019-01-04T19:15:11.120Z,102802.33
2019-01-04T19:17:40.433Z,102805.83
2019-01-04T19:20:09.928Z,102804.40
2019-01-04T19:22:39.244Z,102800.77
2019-01-04T19:25:08.800Z,102798.88
2019-01-04T19:27:39.641Z,102789.45
2019-01-04T19:30:10.005Z,102794.57
2019-01-04T19:32:39.450Z,102796.56
2019-01-04T19:35:09.055Z,102789.59
2019-01-04T19:37:38.584Z,102800.66
2019-01-04T19:40:08.404Z,102787.64
2019-01-04T19:42:37.852Z,102788.20
2019-01-04T19:45:08.056Z,102787.67
2019-01-04T19:47:37.587Z,102784.21
2019-01-04T19:50:21.305Z,102786.89
2019-01-04T19:52:50.750Z,102792.16
2019-01-04T19:55:20.081Z,102789.57
2019-01-04T19:57:49.691Z,102786.42
2019-01-04T20:00:19.144Z,102782.12
2019-01-04T20:02:48.548Z,102779.59
2019-01-04T20:05:21.223Z,102771.30
2019-01-04T20:08:20.816Z,102765.94
2019-01-04T20:11:11.084Z,102765.59
2019-01-04T20:14:07.921Z,102772.14
2019-01-04T20:16:45.165Z,102765.94
2019-01-04T20:19:16.291Z,102771.98
2019-01-04T20:21:53.394Z,102774.95
2019-01-04T20:24:40.819Z,102775.64
2019-01-04T20:27:14.446Z,102770.50
2019-01-04T20:29:45.553Z,102770.77
2019-01-04T20:32:25.926Z,102774.05
2019-01-04T20:35:06.185Z,102768.55
2019-01-04T20:37:39.988Z,102771.55
2019-01-04T20:40:13.833Z,102774.39
2019-01-04T20:42:51.118Z,102768.97
2019-01-04T20:45:31.163Z,102774.45
2019-01-04T20:48:18.487Z,102777.11
2019-01-04T20:51:04.788Z,102779.41
2019-01-04T20:53:52.185Z,102777.79
2019-01-04T20:56:23.321Z,102775.81
2019-01-04T20:59:12.551Z,102770.34
2019-01-04T21:01:46.767Z,102773.70
2019-01-04T21:04:36.165Z,102768.23
2019-01-04T21:07:09.995Z,102764.88
2019-01-04T21:09:44.158Z,102764.80
2019-01-04T21:12:15.638Z,102755.93
2019-01-04T21:15:05.098Z,102762.11
2019-01-04T21:17:36.221Z,102750.02
2019-01-04T21:20:24.551Z,102750.78
2019-01-04T21:22:55.623Z,102751.53
2019-01-04T21:25:32.670Z,102750.95
2019-01-04T21:28:20.034Z,102747.02
2019-01-04T21:31:07.151Z,102747.05
2019-01-04T21:33:54.305Z,102750.28
2019-01-04T21:36:41.407Z,102741.98
2019-01-04T21:39:13.290Z,102729.17
2019-01-04T21:42:02.639Z,102722.48
2019-01-04T21:44:39.500Z,102730.28
2019-01-04T21:47:10.893Z,102730.34
2019-01-04T21:49:53.720Z,102723.03
2019-01-04T21:52:24.861Z,102723.91
2019-01-04T21:54:58.689Z,102732.74
2019-01-04T21:57:46.227Z,102730.09
2019-01-04T22:00:35.564Z,102732.14
2019-01-04T22:03:22.532Z,102724.75
2019-01-04T22:06:02.428Z,102727.34
2019-01-04T22:08:49.930Z,102727.31
2019-01-04T22:11:36.977Z,102722.84
2019-01-04T22:14:14.023Z,102716.20
2019-01-04T22:16:45.049Z,102711.54
2019-01-04T22:19:31.194Z,102706.88
2019-01-04T22:22:18.315Z,102713.20
2019-01-04T22:24:49.450Z,102706.55
2019-01-04T22:27:36.140Z,102702.15
2019-01-04T22:30:09.910Z,102699.04
2019-01-04T22:32:52.779Z,102702.05
2019-01-04T22:35:26.544Z,102685.67
2019-01-04T22:38:06.447Z,102689.59
2019-01-04T22:40:49.300Z,102688.94
2019-01-04T22:43:23.069Z,102686.14
2019-01-04T22:45:56.808Z,102683.45
2019-01-04T22:48:43.920Z,102675.62
2019-01-04T22:51:33.366Z,102679.83
2019-01-04T22:54:20.614Z,102676.06
2019-01-04T22:56:51.859Z,102678.62
2019-01-04T22:59:39.111Z,102672.06
2019-01-04T23:02:19.321Z,102667.50
2019-01-04T23:04:53.746Z,102675.39
2019-01-04T23:07:30.501Z,102666.52
2019-01-04T23:10:07.310Z,102665.68
2019-01-04T23:12:54.744Z,102664.59
2019-01-04T23:15:44.550Z,102660.51
2019-01-04T23:18:27.878Z,102664.14
2019-01-04T23:21:14.078Z,102664.44
2019-01-04T23:23:53.930Z,102667.13
2019-01-04T23:26:37.531Z,102660.67
2019-01-04T23:29:20.738Z,102661.36
2019-01-04T23:32:00.817Z,102654.45
2019-01-04T23:34:31.932Z,102652.92
2019-01-04T23:37:18.847Z,102646.38
2019-01-04T23:39:55.985Z,102635.08
2019-01-04T23:42:30.293Z,102633.62
2019-01-04T23:45:01.406Z,102631.26
2019-01-04T23:47:41.754Z,102633.22
2019-01-04T23:50:19.607Z,102624.30
2019-01-04T23:52:50.697Z,102628.63
2019-01-04T23:55:30.708Z,102625.80
2019-01-04T23:58:10.522Z,102629.48
